You are listening to:
YBCS Tower - Cairns, Queensland, Australia

YBCS 060930Z AUTO 15004KT 9999 // SCT065 18/14 Q1015

If stream doesn't start automatically press the play button
If stream stops then reload player then press play